createdAt,value
2023-02-18T00:02:58.363Z,97764.78
2023-02-18T00:08:01.778Z,97763.56
2023-02-18T00:13:05.040Z,97774.91
2023-02-18T00:18:09.761Z,97750.00
2023-02-18T00:23:12.972Z,97767.44
2023-02-18T00:28:16.196Z,97750.84
2023-02-18T00:33:20.791Z,97751.19
2023-02-18T00:38:23.962Z,97744.94
2023-02-18T00:43:29.103Z,97748.81
2023-02-18T00:48:33.987Z,97756.00
2023-02-18T00:53:37.747Z,97755.78
2023-02-18T00:58:41.081Z,97746.72
2023-02-18T01:03:46.007Z,97757.34
2023-02-18T01:08:50.929Z,97751.78
2023-02-18T01:13:54.321Z,97756.94
2023-02-18T01:18:59.447Z,97756.94
2023-02-18T01:24:02.924Z,97747.09
2023-02-18T01:29:06.072Z,97761.75
2023-02-18T01:34:10.900Z,97758.50
2023-02-18T01:39:14.157Z,97744.31
2023-02-18T01:44:19.456Z,97743.22
2023-02-18T01:49:28.216Z,97745.13
2023-02-18T01:54:33.801Z,97747.16
2023-02-18T01:59:40.920Z,97761.22
2023-02-18T02:04:45.954Z,97754.28
2023-02-18T02:09:51.740Z,97760.75
2023-02-18T02:15:15.880Z,97761.28
2023-02-18T02:20:52.282Z,97764.03
2023-02-18T02:26:28.173Z,97764.88
2023-02-18T02:32:22.424Z,97745.03
2023-02-18T02:37:36.462Z,97738.53
2023-02-18T02:42:48.068Z,97719.56
2023-02-18T02:48:01.907Z,97737.28
2023-02-18T02:53:13.447Z,97733.09
2023-02-18T02:58:19.280Z,97734.06
2023-02-18T03:03:43.200Z,97718.78
2023-02-18T03:09:00.312Z,97713.75
2023-02-18T03:14:11.378Z,97714.94
2023-02-18T03:19:25.039Z,97715.78
2023-02-18T03:24:38.762Z,97714.44
2023-02-18T03:29:44.498Z,97722.75
2023-02-18T03:34:52.834Z,97724.78
2023-02-18T03:40:01.682Z,97715.53
2023-02-18T03:45:05.779Z,97727.81
2023-02-18T03:50:10.901Z,97725.31
2023-02-18T03:55:15.680Z,97732.41
2023-02-18T04:00:20.298Z,97726.13
2023-02-18T04:05:23.411Z,97729.25
2023-02-18T04:10:28.089Z,97736.50
2023-02-18T04:15:31.355Z,97725.69
2023-02-18T04:20:34.470Z,97713.56
2023-02-18T04:25:39.187Z,97703.16
2023-02-18T04:30:42.708Z,97700.75
2023-02-18T04:35:45.936Z,97699.91
2023-02-18T04:40:50.539Z,97671.88
2023-02-18T04:45:53.818Z,97651.53
2023-02-18T04:50:56.964Z,97643.81
2023-02-18T04:56:01.818Z,97645.69
2023-02-18T05:01:06.257Z,97652.34
2023-02-18T05:06:09.775Z,97643.00
2023-02-18T05:11:14.440Z,97634.81
2023-02-18T05:16:17.885Z,97643.19
2023-02-18T05:21:21.142Z,97618.56
2023-02-18T05:26:25.857Z,97620.53
2023-02-18T05:31:29.156Z,97612.69
2023-02-18T05:36:32.615Z,97610.78
2023-02-18T05:41:37.241Z,97617.97
2023-02-18T05:46:40.463Z,97613.41
2023-02-18T05:51:43.752Z,97598.13
2023-02-18T05:56:48.410Z,97600.28
2023-02-18T06:01:52.210Z,97582.59
2023-02-18T06:06:55.896Z,97579.84
2023-02-18T06:12:00.686Z,97570.47
2023-02-18T06:17:03.864Z,97551.25
2023-02-18T06:22:07.270Z,97552.28
2023-02-18T06:27:11.953Z,97535.09
2023-02-18T06:32:15.609Z,97539.66
2023-02-18T06:37:19.115Z,97530.56
2023-02-18T06:42:24.530Z,97527.31
2023-02-18T06:47:29.248Z,97511.69
2023-02-18T06:52:34.829Z,97497.13
2023-02-18T06:57:40.607Z,97478.38
2023-02-18T07:02:44.436Z,97474.03
2023-02-18T07:07:47.800Z,97475.72
2023-02-18T07:12:53.634Z,97473.19
2023-02-18T07:17:57.394Z,97465.25
2023-02-18T07:23:01.265Z,97464.16
2023-02-18T07:28:06.782Z,97445.03
2023-02-18T07:33:10.158Z,97460.66
2023-02-18T07:38:13.792Z,97461.38
2023-02-18T07:43:18.737Z,97456.94
2023-02-18T07:48:22.350Z,97454.38
2023-02-18T07:53:25.930Z,97454.13
2023-02-18T07:58:32.334Z,97453.22
2023-02-18T08:03:36.101Z,97467.75
2023-02-18T08:08:39.370Z,97476.47
2023-02-18T08:13:46.995Z,97467.13
2023-02-18T08:18:52.443Z,97477.59
2023-02-18T08:23:56.870Z,97490.88
2023-02-18T08:29:01.705Z,97477.25
2023-02-18T08:34:05.153Z,97478.31
2023-02-18T08:39:09.470Z,97488.00
2023-02-18T08:44:15.646Z,97495.66
2023-02-18T08:49:21.167Z,97484.59
2023-02-18T08:54:25.272Z,97476.47
2023-02-18T08:59:30.741Z,97459.88
2023-02-18T09:04:34.585Z,97460.09
2023-02-18T09:09:38.095Z,97456.63
2023-02-18T09:14:43.358Z,97454.16
2023-02-18T09:19:47.061Z,97442.63
2023-02-18T09:24:52.652Z,97449.69
2023-02-18T09:29:57.849Z,97451.19
2023-02-18T09:35:02.036Z,97447.22
2023-02-18T09:40:05.975Z,97453.22
2023-02-18T09:45:16.621Z,97445.75
2023-02-18T09:50:23.217Z,97441.69
2023-02-18T09:55:31.021Z,97430.09
2023-02-18T10:00:38.603Z,97433.66
2023-02-18T10:05:44.888Z,97432.28
2023-02-18T10:10:48.751Z,97434.78
2023-02-18T10:15:54.152Z,97435.84
2023-02-18T10:21:09.741Z,97423.66
2023-02-18T10:26:19.289Z,97438.41
2023-02-18T10:31:31.095Z,97425.34
2023-02-18T10:36:41.310Z,97424.38
2023-02-18T10:41:53.431Z,97406.25
2023-02-18T10:47:05.367Z,97406.34
2023-02-18T10:52:17.561Z,97399.97
2023-02-18T10:57:23.181Z,97398.41
2023-02-18T11:02:32.648Z,97394.03
2023-02-18T11:07:40.461Z,97389.50
2023-02-18T11:12:48.583Z,97400.41
2023-02-18T11:17:55.485Z,97408.81
2023-02-18T11:23:15.117Z,97392.03
2023-02-18T11:28:31.781Z,97404.56
2023-02-18T11:33:41.815Z,97380.22
2023-02-18T11:38:48.958Z,97364.91
2023-02-18T11:43:55.985Z,97365.09
2023-02-18T11:49:22.018Z,97352.09
2023-02-18T11:54:30.358Z,97344.13
2023-02-18T11:59:37.867Z,97336.28
2023-02-18T12:04:48.367Z,97337.59
2023-02-18T12:09:56.324Z,97337.50
2023-02-18T12:15:01.846Z,97352.66
2023-02-18T12:20:24.425Z,97326.09
2023-02-18T12:25:40.543Z,97304.75
2023-02-18T12:31:19.761Z,97297.38
2023-02-18T12:36:37.905Z,97311.38
2023-02-18T12:42:00.258Z,97339.25
2023-02-18T12:47:19.262Z,97310.44
2023-02-18T12:52:40.400Z,97315.03
2023-02-18T12:57:48.598Z,97343.13
2023-02-18T13:03:21.011Z,97355.19
2023-02-18T13:08:43.336Z,97355.44
2023-02-18T13:13:54.244Z,97352.84
2023-02-18T13:19:03.620Z,97359.50
2023-02-18T13:24:13.652Z,97374.78
2023-02-18T13:29:26.964Z,97379.00
2023-02-18T13:34:41.315Z,97381.31
2023-02-18T13:39:52.654Z,97363.75
2023-02-18T13:45:07.816Z,97369.69
2023-02-18T13:50:50.388Z,97363.41
2023-02-18T13:56:09.327Z,97370.28
2023-02-18T14:01:33.327Z,97346.88
2023-02-18T14:06:39.061Z,97351.28
2023-02-18T14:11:50.244Z,97357.22
2023-02-18T14:17:31.820Z,97361.69
2023-02-18T14:22:46.568Z,97364.19
2023-02-18T14:27:54.642Z,97372.66
2023-02-18T14:33:01.198Z,97376.44
2023-02-18T14:38:24.587Z,97366.66
2023-02-18T14:43:57.424Z,97388.66
2023-02-18T14:49:17.917Z,97382.91
2023-02-18T14:54:25.158Z,97391.75
2023-02-18T14:59:35.782Z,97404.00
2023-02-18T15:04:39.496Z,97391.22
2023-02-18T15:09:50.442Z,97398.47
2023-02-18T15:15:01.804Z,97392.03
2023-02-18T15:20:09.145Z,97395.78
2023-02-18T15:25:14.609Z,97387.84
2023-02-18T15:30:29.220Z,97401.09
2023-02-18T15:35:34.252Z,97404.19
2023-02-18T15:40:40.742Z,97393.16
2023-02-18T15:45:47.901Z,97394.81
2023-02-18T15:50:55.574Z,97387.75
2023-02-18T15:56:00.973Z,97388.94
2023-02-18T16:01:08.148Z,97373.69
2023-02-18T16:06:19.008Z,97384.16
2023-02-18T16:11:25.978Z,97378.59
2023-02-18T16:16:35.321Z,97380.66
2023-02-18T16:21:41.604Z,97397.13
2023-02-18T16:26:48.094Z,97398.16
2023-02-18T16:31:53.356Z,97394.97
2023-02-18T16:37:14.324Z,97388.69
2023-02-18T16:42:18.115Z,97404.78
2023-02-18T16:47:22.705Z,97408.28
2023-02-18T16:52:25.819Z,97417.66
2023-02-18T16:57:28.951Z,97417.66
2023-02-18T17:02:33.510Z,97425.59
2023-02-18T17:07:37.042Z,97422.72
2023-02-18T17:12:42.719Z,97434.59
2023-02-18T17:17:47.346Z,97436.25
2023-02-18T17:22:50.635Z,97454.28
2023-02-18T17:27:53.809Z,97451.78
2023-02-18T17:33:03.169Z,97449.00
2023-02-18T17:38:11.378Z,97440.13
2023-02-18T17:43:16.095Z,97449.25
2023-02-18T17:48:21.245Z,97460.53
2023-02-18T17:53:25.084Z,97459.25
2023-02-18T17:58:31.068Z,97476.31
2023-02-18T18:03:35.576Z,97473.16
2023-02-18T18:08:38.718Z,97484.47
2023-02-18T18:13:42.214Z,97479.91
2023-02-18T18:18:47.013Z,97488.56
2023-02-18T18:23:51.210Z,97496.13
2023-02-18T18:28:54.990Z,97503.34
2023-02-18T18:33:59.867Z,97506.09
2023-02-18T18:39:05.425Z,97496.25
2023-02-18T18:44:09.141Z,97507.16
2023-02-18T18:49:13.833Z,97496.75
2023-02-18T18:54:17.839Z,97506.09
2023-02-18T18:59:22.357Z,97491.16
2023-02-18T19:04:28.086Z,97491.91
2023-02-18T19:09:31.451Z,97494.09
2023-02-18T19:14:34.696Z,97499.56
2023-02-18T19:19:39.527Z,97499.03
2023-02-18T19:24:43.012Z,97500.16
2023-02-18T19:29:48.573Z,97502.84
2023-02-18T19:34:53.281Z,97509.66
2023-02-18T19:39:56.530Z,97504.50
2023-02-18T19:45:00.028Z,97499.44
2023-02-18T19:50:07.725Z,97509.91
2023-02-18T19:55:11.925Z,97525.97
2023-02-18T20:00:17.112Z,97551.00
2023-02-18T20:05:21.881Z,97535.72
2023-02-18T20:10:25.411Z,97552.25
2023-02-18T20:15:29.221Z,97552.19
2023-02-18T20:20:36.220Z,97563.72
2023-02-18T20:25:40.267Z,97564.84
2023-02-18T20:30:44.326Z,97563.69
2023-02-18T20:35:57.337Z,97558.94
2023-02-18T20:41:05.170Z,97556.09
2023-02-18T20:46:11.821Z,97553.44
2023-02-18T20:51:18.686Z,97545.13
2023-02-18T20:56:22.830Z,97544.22
2023-02-18T21:01:26.114Z,97529.25
2023-02-18T21:06:30.897Z,97534.63
2023-02-18T21:11:34.725Z,97527.94
2023-02-18T21:16:40.136Z,97540.06
2023-02-18T21:21:47.296Z,97537.44
2023-02-18T21:26:50.754Z,97532.75
2023-02-18T21:31:54.390Z,97530.69
2023-02-18T21:36:59.432Z,97526.78
2023-02-18T21:42:04.504Z,97532.31
2023-02-18T21:47:07.862Z,97535.63
2023-02-18T21:52:12.807Z,97525.75
2023-02-18T21:57:18.495Z,97525.53
2023-02-18T22:02:24.026Z,97519.63
2023-02-18T22:07:29.347Z,97516.81
2023-02-18T22:12:34.057Z,97500.28
2023-02-18T22:17:37.472Z,97517.63
2023-02-18T22:22:42.053Z,97499.50
2023-02-18T22:27:45.085Z,97507.81
2023-02-18T22:32:48.188Z,97506.44
2023-02-18T22:37:52.730Z,97499.38
2023-02-18T22:42:55.881Z,97492.13
2023-02-18T22:47:59.176Z,97490.03
2023-02-18T22:53:04.388Z,97473.50
2023-02-18T22:58:07.677Z,97465.16
2023-02-18T23:03:10.831Z,97446.19
2023-02-18T23:08:15.414Z,97431.09
2023-02-18T23:13:18.675Z,97438.88
2023-02-18T23:18:22.175Z,97451.97
2023-02-18T23:23:26.861Z,97463.16
2023-02-18T23:28:47.613Z,97453.81
2023-02-18T23:33:54.574Z,97446.78
2023-02-18T23:39:01.044Z,97430.50
2023-02-18T23:44:05.092Z,97436.22
2023-02-18T23:49:09.464Z,97415.72
2023-02-18T23:54:14.300Z,97424.84
2023-02-18T23:59:17.812Z,97419.72
